Las horas y fechas están en horario UTC
Sumar 1 hora en el horario de Invierno y 2 horas en el de Verano

Informes METAR cercanos

 

LEZL - Sevilla (civ/Mil, Spain
Distance from station: NNE 24km
Actualización: 29/10/2020 06:30
Despejado
Despejado
 Viento del ENE
Viento: ENE 11 km/h
Temperatura: 14°C
Rocío: 12°C
Humedad: 88%
Barómetro: 1023 hPa
Resumen: Despejado
Visibility: greater than 10 km
2020/10/29 05:30 LEZL 290530Z 06006KT CAVOK 14/12 Q1023 NOSIG
LEMO - Moron (sp-Usafb), Spain
Distance from station: E 38km
Actualización: 29/10/2020 06:30
Despejado
Despejado
 Viento del NE
Viento: NE 15 km/h
Temperatura: 12°C
Rocío: 11°C
Humedad: 94%
Barómetro: 1023 hPa
Resumen: Despejado
Visibility: greater than 10 km
2020/10/29 05:30 LEMO 290530Z 05008KT CAVOK 12/11 Q1023 NOSIG
LEJR - Jerez (civ/Mil), Spain
Distance from station: S 53km
Actualización: 29/10/2020 06:30
Despejado
Despejado
 Viento del varies
Viento: varies 2 km/h
Temperatura: 10°C
Rocío: 9°C
Humedad: 94%
Barómetro: 1023 hPa
Resumen: Despejado
Visibility: greater than 10 km
2020/10/29 05:30 LEJR 290530Z VRB01KT CAVOK 10/09 Q1023
 
LERT - Rota Naval Stati, Spain
Distance from station: SSO 71km
Actualización: 29/10/2020 06:30
Despejado
Despejado
 Viento del NE
Viento: NE 9 km/h
Temperatura: 13°C
Rocío: 11°C
Humedad: 88%
Barómetro: 1023 hPa
Resumen: Despejado
Visibility: greater than 10 km
2020/10/29 05:30 LERT 290530Z 04005KT CAVOK 13/11 Q1023 NOSIG
LEBA - Cordoba Airport, Spain
Distance from station: ENE 128km
Actualización: 29/10/2020 06:30

 Viento del varies
Viento: varies 4 km/h
Temperatura: 10°C
Rocío: 9°C
Humedad: 94%
Barómetro: 1024 hPa
Visibility: 10 km
2020/10/29 05:30 LEBA 290530Z AUTO VRB02KT 9999 ////// 10/09 Q1024
LXGB - Gibraltar (civ/M, Gibraltar
Distance from station: SSE 137km
Actualización: 29/10/2020 05:50
Few Clouds
Few Clouds
 Viento del ENE
Viento: ENE 4 km/h
Temperatura: 15°C
Rocío: 10°C
Humedad: 72%
Barómetro: 1023 hPa
Clouds: Few Clouds
Visibility: 10 km
Cloud details: Few Clouds 244 m
2020/10/29 04:50 LXGB 290450Z 06002KT 9999 FEW008 15/10 Q1023 RMK BLU
 
LEMG - Malaga (civ/Mil), Spain
Distance from station: ESE 150km
Actualización: 29/10/2020 06:30
Despejado
Despejado
 Viento del ONO
Viento: ONO 15 km/h
Temperatura: 12°C
Rocío: 10°C
Humedad: 88%
Barómetro: 1024 hPa
Resumen: Despejado
Visibility: greater than 10 km
2020/10/29 05:30 LEMG 290530Z 29008KT CAVOK 12/10 Q1024 NOSIG
GMTT - Tangier/Boukhalf, Morocco
Distance from station: S 169km
Actualización: 29/10/2020 06:30
Despejado
Despejado
 Viento del E
Viento: E 7 km/h
Temperatura: 14°C
Rocío: 8°C
Humedad: 67%
Barómetro: 1021 hPa
Resumen: Despejado
Visibility: greater than 10 km
2020/10/29 05:30 GMTT 290530Z 10004KT CAVOK 14/08 Q1021 NOSIG
LPFR - Faro, Portugal
Distance from station: O 172km
Actualización: 29/10/2020 06:30
Despejado
Despejado
 Viento del NNE
Viento: NNE 11 km/h
Temperatura: 16°C
Rocío: 15°C
Humedad: 94%
Barómetro: 1023 hPa
Resumen: Despejado
Visibility: greater than 10 km
2020/10/29 05:30 LPFR 290530Z 02006KT CAVOK 16/15 Q1023
 
LPBJ - Beja (por/Ger-Af, Portugal
Distance from station: ONO 192km
Actualización: 29/10/2020 06:00
Despejado
Despejado
 Viento del NE
Viento: NE 4 km/h
Temperatura: 13°C
Rocío: 12°C
Humedad: 94%
Barómetro: 1024 hPa
Resumen: Despejado
Visibility: greater than 10 km
2020/10/29 05:00 LPBJ 290500Z 05002KT CAVOK 13/12 Q1024
LEBZ - Talavera Ab/Bada, Spain
Distance from station: NNO 194km
Actualización: 28/10/2020 21:00
NOT Current
Muy nuboso
Muy nuboso
 Viento del SSE
Viento: SSE 4 km/h
Temperatura: 18°C
Rocío: 16°C
Humedad: 88%
Barómetro: 1024 hPa
Clouds: Muy nuboso
Visibility: 10 km
Cloud details: Muy nuboso 1097 m
2020/10/28 20:00 LEBZ 282000Z 16002KT 9999 BKN036 18/16 Q1024
LEMD - Madrid/Barajas, Spain
Distance from station: NE 415km
Actualización: 29/10/2020 06:30
Cubierto
Cubierto
 Viento del calm
Viento: Calma
Temperatura: 12°C
Rocío: 10°C
Humedad: 88%
Barómetro: 1027 hPa
Clouds: Cubierto
Visibility: 10 km
Cloud details: Cubierto 518 m
2020/10/29 05:30 LEMD 290530Z 00000KT 9999 OVC017 12/10 Q1027 NOSIG